createdAt,value
2023-01-22T00:01:43.762Z,89.90
2023-01-22T00:04:12.991Z,90.40
2023-01-22T00:06:41.951Z,89.90
2023-01-22T00:09:10.867Z,88.90
2023-01-22T00:11:39.719Z,87.60
2023-01-22T00:14:08.883Z,87.20
2023-01-22T00:16:37.818Z,87.40
2023-01-22T00:19:06.809Z,87.60
2023-01-22T00:21:35.869Z,88.10
2023-01-22T00:24:05.362Z,87.40
2023-01-22T00:26:34.334Z,88.30
2023-01-22T00:29:03.250Z,90.60
2023-01-22T00:31:32.358Z,92.70
2023-01-22T00:34:01.422Z,91.80
2023-01-22T00:36:30.447Z,92.30
2023-01-22T00:38:59.421Z,92.50
2023-01-22T00:41:28.392Z,91.50
2023-01-22T00:43:57.375Z,90.40
2023-01-22T00:46:26.402Z,89.80
2023-01-22T00:48:55.405Z,89.30
2023-01-22T00:51:24.442Z,88.60
2023-01-22T00:53:53.368Z,88.00
2023-01-22T00:56:22.575Z,87.00
2023-01-22T00:58:51.550Z,86.30
2023-01-22T01:01:21.363Z,85.90
2023-01-22T01:03:50.252Z,86.40
2023-01-22T01:06:21.666Z,86.00
2023-01-22T01:08:51.255Z,85.60
2023-01-22T01:11:30.814Z,85.30
2023-01-22T01:13:59.754Z,84.70
2023-01-22T01:16:31.105Z,84.10
2023-01-22T01:19:01.468Z,83.70
2023-01-22T01:21:31.396Z,83.20
2023-01-22T01:24:01.244Z,82.60
2023-01-22T01:26:30.299Z,82.20
2023-01-22T01:28:59.286Z,81.80
2023-01-22T01:31:28.529Z,81.00
2023-01-22T01:33:57.529Z,80.70
2023-01-22T01:36:47.239Z,80.20
2023-01-22T01:39:16.254Z,79.70
2023-01-22T01:41:45.477Z,79.10
2023-01-22T01:44:18.633Z,78.80
2023-01-22T01:46:47.696Z,78.20
2023-01-22T01:49:26.786Z,77.80
2023-01-22T01:52:02.683Z,77.30
2023-01-22T01:54:33.081Z,77.00
2023-01-22T01:57:34.294Z,76.70
2023-01-22T02:00:11.526Z,76.00
2023-01-22T02:02:41.680Z,75.70
2023-01-22T02:05:11.406Z,75.40
2023-01-22T02:07:40.290Z,74.80
2023-01-22T02:10:09.628Z,74.30
2023-01-22T02:12:38.565Z,73.90
2023-01-22T02:15:08.255Z,73.60
2023-01-22T02:17:37.344Z,73.20
2023-01-22T02:20:06.794Z,73.10
2023-01-22T02:22:39.138Z,72.60
2023-01-22T02:25:09.015Z,72.10
2023-01-22T02:27:38.010Z,71.50
2023-01-22T02:30:08.005Z,69.00
2023-01-22T02:32:36.997Z,69.60
2023-01-22T02:35:06.110Z,70.10
2023-01-22T02:37:35.032Z,70.10
2023-01-22T02:40:04.053Z,70.70
2023-01-22T02:42:33.013Z,69.90
2023-01-22T02:45:01.942Z,68.20
2023-01-22T02:47:30.980Z,68.00
2023-01-22T02:49:59.911Z,68.90
2023-01-22T02:52:28.859Z,68.90
2023-01-22T02:54:58.213Z,69.00
2023-01-22T02:57:27.336Z,68.70
2023-01-22T02:59:56.258Z,68.30
2023-01-22T03:02:25.611Z,67.60
2023-01-22T03:05:04.278Z,67.90
2023-01-22T03:07:43.452Z,67.70
2023-01-22T03:10:20.745Z,65.70
2023-01-22T03:13:11.138Z,64.70
2023-01-22T03:15:59.552Z,66.00
2023-01-22T03:18:46.595Z,66.00
2023-01-22T03:21:22.063Z,65.30
2023-01-22T03:23:59.794Z,65.60
2023-01-22T03:26:30.106Z,65.20
2023-01-22T03:28:59.012Z,63.50
2023-01-22T03:31:28.022Z,65.00
2023-01-22T03:33:56.985Z,64.40
2023-01-22T03:36:26.015Z,64.10
2023-01-22T03:38:54.946Z,63.70
2023-01-22T03:41:23.851Z,61.10
2023-01-22T03:43:52.799Z,61.80
2023-01-22T03:46:22.285Z,63.70
2023-01-22T03:48:55.205Z,63.00
2023-01-22T03:51:24.591Z,62.90
2023-01-22T03:53:53.680Z,61.70
2023-01-22T03:56:25.188Z,57.60
2023-01-22T03:58:54.604Z,58.20
2023-01-22T04:01:26.297Z,58.70
2023-01-22T04:03:55.997Z,60.70
2023-01-22T04:06:25.672Z,59.20
2023-01-22T04:08:56.283Z,55.60
2023-01-22T04:11:26.043Z,60.30
2023-01-22T04:13:57.345Z,60.40
2023-01-22T04:16:26.270Z,60.40
2023-01-22T04:18:55.271Z,59.60
2023-01-22T04:21:24.977Z,58.20
2023-01-22T04:23:53.884Z,58.10
2023-01-22T04:26:22.883Z,59.10
2023-01-22T04:28:51.812Z,53.30
2023-01-22T04:31:20.815Z,57.90
2023-01-22T04:33:49.822Z,59.80
2023-01-22T04:36:22.505Z,59.70
2023-01-22T04:38:51.520Z,59.40
2023-01-22T04:41:20.489Z,55.70
2023-01-22T04:43:49.481Z,57.40
2023-01-22T04:46:18.511Z,56.70
2023-01-22T04:48:47.557Z,58.60
2023-01-22T04:51:16.587Z,57.80
2023-01-22T04:53:45.554Z,54.10
2023-01-22T04:56:14.482Z,55.30
2023-01-22T04:58:43.422Z,58.20
2023-01-22T05:01:12.357Z,56.90
2023-01-22T05:03:41.636Z,56.70
2023-01-22T05:06:10.710Z,57.70
2023-01-22T05:08:39.668Z,58.10
2023-01-22T05:11:08.989Z,56.50
2023-01-22T05:13:38.014Z,58.10
2023-01-22T05:16:07.252Z,56.20
2023-01-22T05:18:36.154Z,56.20
2023-01-22T05:21:05.197Z,57.10
2023-01-22T05:23:34.090Z,56.70
2023-01-22T05:26:02.985Z,56.60
2023-01-22T05:28:31.968Z,56.70
2023-01-22T05:31:00.939Z,56.70
2023-01-22T05:33:33.892Z,56.50
2023-01-22T05:36:04.307Z,56.30
2023-01-22T05:38:33.548Z,55.00
2023-01-22T05:41:02.495Z,56.40
2023-01-22T05:43:31.437Z,56.70
2023-01-22T05:46:03.641Z,55.60
2023-01-22T05:48:34.446Z,56.00
2023-01-22T05:51:10.452Z,55.80
2023-01-22T05:53:45.490Z,53.30
2023-01-22T05:56:14.447Z,54.90
2023-01-22T05:58:43.387Z,54.90
2023-01-22T06:01:21.940Z,54.90
2023-01-22T06:03:51.011Z,55.00
2023-01-22T06:06:21.583Z,55.40
2023-01-22T06:08:53.489Z,55.50
2023-01-22T06:11:25.101Z,54.60
2023-01-22T06:14:14.056Z,54.80
2023-01-22T06:16:43.002Z,54.20
2023-01-22T06:19:12.397Z,52.70
2023-01-22T06:21:41.953Z,53.40
2023-01-22T06:24:10.999Z,53.20
2023-01-22T06:26:40.060Z,54.10
2023-01-22T06:29:09.131Z,53.80
2023-01-22T06:31:38.083Z,54.10
2023-01-22T06:34:06.987Z,51.60
2023-01-22T06:36:35.879Z,47.00
2023-01-22T06:39:05.018Z,48.30
2023-01-22T06:41:33.918Z,51.40
2023-01-22T06:44:02.808Z,52.10
2023-01-22T06:46:31.995Z,48.50
2023-01-22T06:49:02.666Z,52.40
2023-01-22T06:51:32.191Z,51.60
2023-01-22T06:54:01.625Z,50.10
2023-01-22T06:56:30.711Z,52.00
2023-01-22T06:58:59.640Z,52.20
2023-01-22T07:01:28.515Z,48.90
2023-01-22T07:03:57.806Z,50.10
2023-01-22T07:06:26.800Z,51.10
2023-01-22T07:08:57.374Z,50.30
2023-01-22T07:11:26.317Z,50.60
2023-01-22T07:13:55.263Z,49.70
2023-01-22T07:16:24.333Z,50.30
2023-01-22T07:18:53.352Z,49.70
2023-01-22T07:21:22.287Z,48.80
2023-01-22T07:23:51.233Z,49.00
2023-01-22T07:26:20.243Z,49.00
2023-01-22T07:28:49.155Z,49.50
2023-01-22T07:31:18.150Z,47.80
2023-01-22T07:33:47.110Z,46.80
2023-01-22T07:36:16.033Z,48.10
2023-01-22T07:38:44.945Z,45.80
2023-01-22T07:41:25.220Z,39.50
2023-01-22T07:43:55.132Z,46.20
2023-01-22T07:46:24.212Z,49.30
2023-01-22T07:48:53.148Z,49.90
2023-01-22T07:51:22.429Z,49.30
2023-01-22T07:53:51.371Z,48.90
2023-01-22T07:56:20.627Z,49.30
2023-01-22T07:58:49.504Z,48.40
2023-01-22T08:01:18.781Z,48.20
2023-01-22T08:03:47.745Z,48.40
2023-01-22T08:06:21.764Z,48.50
2023-01-22T08:08:51.188Z,45.20
2023-01-22T08:11:20.161Z,48.40
2023-01-22T08:13:49.222Z,48.40
2023-01-22T08:16:18.268Z,48.70
2023-01-22T08:18:47.168Z,48.60
2023-01-22T08:21:16.150Z,48.40
2023-01-22T08:23:48.188Z,48.20
2023-01-22T08:26:18.031Z,48.10
2023-01-22T08:28:46.949Z,48.10
2023-01-22T08:31:27.099Z,38.80
2023-01-22T08:33:59.119Z,45.70
2023-01-22T08:36:28.255Z,46.80
2023-01-22T08:38:57.461Z,47.90
2023-01-22T08:41:26.669Z,48.40
2023-01-22T08:43:55.766Z,48.50
2023-01-22T08:46:24.656Z,39.10
2023-01-22T08:48:53.657Z,46.20
2023-01-22T08:51:24.558Z,44.60
2023-01-22T08:53:53.647Z,47.40
2023-01-22T08:56:22.551Z,46.80
2023-01-22T08:58:52.653Z,47.20
2023-01-22T09:01:22.281Z,47.20
2023-01-22T09:03:51.245Z,47.30
2023-01-22T09:06:20.180Z,47.40
2023-01-22T09:08:49.079Z,47.70
2023-01-22T09:11:18.327Z,48.00
2023-01-22T09:13:47.639Z,47.10
2023-01-22T09:16:16.537Z,47.60
2023-01-22T09:18:45.441Z,48.10
2023-01-22T09:21:14.387Z,47.30
2023-01-22T09:23:43.301Z,48.30
2023-01-22T09:26:12.953Z,47.80
2023-01-22T09:28:41.905Z,48.10
2023-01-22T09:31:13.703Z,47.80
2023-01-22T09:33:42.641Z,46.80
2023-01-22T09:36:13.980Z,48.00
2023-01-22T09:38:43.247Z,48.00
2023-01-22T09:41:48.577Z,48.10
2023-01-22T09:44:24.763Z,46.80
2023-01-22T09:47:05.528Z,47.80
2023-01-22T09:50:01.767Z,47.30
2023-01-22T09:52:33.651Z,46.40
2023-01-22T09:55:02.557Z,47.70
2023-01-22T09:57:32.382Z,47.40
2023-01-22T10:00:01.565Z,47.40
2023-01-22T10:02:39.488Z,47.60
2023-01-22T10:05:20.753Z,47.40
2023-01-22T10:07:54.879Z,47.60
2023-01-22T10:10:27.067Z,47.60
2023-01-22T10:13:12.366Z,48.00
2023-01-22T10:15:41.589Z,47.50
2023-01-22T10:18:26.697Z,48.00
2023-01-22T10:20:57.112Z,48.00
2023-01-22T10:23:27.738Z,48.40
2023-01-22T10:26:20.162Z,48.30
2023-01-22T10:28:51.825Z,47.00
2023-01-22T10:31:34.506Z,48.00
2023-01-22T10:34:11.924Z,47.60
2023-01-22T10:36:40.871Z,48.10
2023-01-22T10:39:17.819Z,47.90
2023-01-22T10:41:48.601Z,47.80
2023-01-22T10:44:28.254Z,47.90
2023-01-22T10:47:07.974Z,47.50
2023-01-22T10:49:36.951Z,47.90
2023-01-22T10:52:38.040Z,48.00
2023-01-22T10:55:08.519Z,47.80
2023-01-22T10:57:39.051Z,48.10
2023-01-22T11:00:08.443Z,48.10
2023-01-22T11:02:38.197Z,48.30
2023-01-22T11:05:19.803Z,48.50
2023-01-22T11:08:12.751Z,48.50
2023-01-22T11:11:02.776Z,49.00
2023-01-22T11:14:03.902Z,48.70
2023-01-22T11:16:37.507Z,49.00
2023-01-22T11:19:14.833Z,49.50
2023-01-22T11:21:52.674Z,49.80
2023-01-22T11:24:38.250Z,50.20
2023-01-22T11:27:16.248Z,50.50
2023-01-22T11:30:24.181Z,50.80
2023-01-22T11:33:27.614Z,50.90
2023-01-22T11:36:18.289Z,51.20
2023-01-22T11:38:47.113Z,51.50
2023-01-22T11:41:48.665Z,51.20
2023-01-22T11:44:29.569Z,51.30
2023-01-22T11:47:19.703Z,51.50
2023-01-22T11:50:27.817Z,51.60
2023-01-22T11:53:18.053Z,51.80
2023-01-22T11:56:25.168Z,52.30
2023-01-22T11:59:07.034Z,52.90
2023-01-22T12:01:56.178Z,52.90
2023-01-22T12:04:54.205Z,53.50
2023-01-22T12:07:38.212Z,53.90
2023-01-22T12:10:31.402Z,54.40
2023-01-22T12:13:10.587Z,54.50
2023-01-22T12:16:06.453Z,54.90
2023-01-22T12:18:58.036Z,55.30
2023-01-22T12:21:41.411Z,55.60
2023-01-22T12:24:35.999Z,55.80
2023-01-22T12:27:07.247Z,56.50
2023-01-22T12:30:29.583Z,58.80
2023-01-22T12:33:04.319Z,58.00
2023-01-22T12:35:34.221Z,57.20
2023-01-22T12:38:16.157Z,57.90
2023-01-22T12:41:12.576Z,57.60
2023-01-22T12:43:44.327Z,58.60
2023-01-22T12:46:45.211Z,58.30
2023-01-22T12:49:18.571Z,59.40
2023-01-22T12:51:52.567Z,58.80
2023-01-22T12:54:22.945Z,59.70
2023-01-22T12:56:54.156Z,63.20
2023-01-22T12:59:42.880Z,59.80
2023-01-22T13:02:36.776Z,59.80
2023-01-22T13:05:23.672Z,59.90
2023-01-22T13:08:08.236Z,60.40
2023-01-22T13:10:38.287Z,60.00
2023-01-22T13:13:22.952Z,59.90
2023-01-22T13:16:01.009Z,60.30
2023-01-22T13:18:34.426Z,60.10
2023-01-22T13:21:12.532Z,60.10
2023-01-22T13:23:47.551Z,60.10
2023-01-22T13:26:18.547Z,60.20
2023-01-22T13:29:00.122Z,60.20
2023-01-22T13:31:29.238Z,61.20
2023-01-22T13:34:01.321Z,61.20
2023-01-22T13:36:30.711Z,61.00
2023-01-22T13:39:00.924Z,61.30
2023-01-22T13:41:39.556Z,62.10
2023-01-22T13:44:17.775Z,61.70
2023-01-22T13:46:47.011Z,62.00
2023-01-22T13:49:26.691Z,62.30
2023-01-22T13:51:58.340Z,62.50
2023-01-22T13:54:59.805Z,62.70
2023-01-22T13:57:28.813Z,64.40
2023-01-22T14:00:00.409Z,63.50
2023-01-22T14:02:32.147Z,63.20
2023-01-22T14:05:01.145Z,63.00
2023-01-22T14:07:34.655Z,63.10
2023-01-22T14:10:20.651Z,62.80
2023-01-22T14:13:11.638Z,63.30
2023-01-22T14:15:42.248Z,63.30
2023-01-22T14:18:14.615Z,62.90
2023-01-22T14:20:45.585Z,62.70
2023-01-22T14:23:15.201Z,62.40
2023-01-22T14:25:50.080Z,62.60
2023-01-22T14:28:19.738Z,63.00
2023-01-22T14:30:49.838Z,63.20
2023-01-22T14:33:25.011Z,63.30
2023-01-22T14:35:55.277Z,63.90
2023-01-22T14:38:25.602Z,63.80
2023-01-22T14:40:54.956Z,64.20
2023-01-22T14:43:24.440Z,64.10
2023-01-22T14:45:53.434Z,64.50
2023-01-22T14:48:22.964Z,64.50
2023-01-22T14:50:52.821Z,64.30
2023-01-22T14:53:21.850Z,64.30
2023-01-22T14:55:50.764Z,64.60
2023-01-22T14:58:19.774Z,64.50
2023-01-22T15:00:48.660Z,64.60
2023-01-22T15:03:17.650Z,64.70
2023-01-22T15:05:46.801Z,64.70
2023-01-22T15:08:15.725Z,64.70
2023-01-22T15:10:44.768Z,64.90
2023-01-22T15:13:13.761Z,65.10
2023-01-22T15:15:42.686Z,65.30
2023-01-22T15:18:11.714Z,65.30
2023-01-22T15:20:40.632Z,65.10
2023-01-22T15:23:09.642Z,66.00
2023-01-22T15:25:38.586Z,65.20
2023-01-22T15:28:07.621Z,65.30
2023-01-22T15:30:36.595Z,65.50
2023-01-22T15:33:05.579Z,66.10
2023-01-22T15:35:34.515Z,66.30
2023-01-22T15:38:06.389Z,66.20
2023-01-22T15:40:38.034Z,66.60
2023-01-22T15:43:07.391Z,66.80
2023-01-22T15:45:36.327Z,67.10
2023-01-22T15:48:05.363Z,67.50
2023-01-22T15:50:34.282Z,67.30
2023-01-22T15:53:03.206Z,67.50
2023-01-22T15:55:32.100Z,67.80
2023-01-22T15:58:01.361Z,68.30
2023-01-22T16:00:30.355Z,68.40
2023-01-22T16:02:59.278Z,68.30
2023-01-22T16:05:28.199Z,68.60
2023-01-22T16:07:57.096Z,68.70
2023-01-22T16:10:26.091Z,68.60
2023-01-22T16:12:55.064Z,68.60
2023-01-22T16:15:23.997Z,68.70
2023-01-22T16:17:52.947Z,68.60
2023-01-22T16:20:22.365Z,68.60
2023-01-22T16:22:51.527Z,68.50
2023-01-22T16:25:20.765Z,68.60
2023-01-22T16:27:49.660Z,69.00
2023-01-22T16:30:19.094Z,69.00
2023-01-22T16:32:48.251Z,69.10
2023-01-22T16:35:19.453Z,69.30
2023-01-22T16:37:48.385Z,69.40
2023-01-22T16:40:18.978Z,69.70
2023-01-22T16:43:00.949Z,69.70
2023-01-22T16:45:29.850Z,70.00
2023-01-22T16:47:58.919Z,69.90
2023-01-22T16:50:27.858Z,70.00
2023-01-22T16:52:56.830Z,70.30
2023-01-22T16:55:25.925Z,70.80
2023-01-22T16:57:54.850Z,71.10
2023-01-22T17:00:23.901Z,71.20
2023-01-22T17:02:52.883Z,71.90
2023-01-22T17:05:21.845Z,72.20
2023-01-22T17:07:50.750Z,72.50
2023-01-22T17:10:20.008Z,72.30
2023-01-22T17:12:49.215Z,72.40
2023-01-22T17:15:18.540Z,72.50
2023-01-22T17:17:47.650Z,72.90
2023-01-22T17:20:16.800Z,72.60
2023-01-22T17:22:45.851Z,72.50
2023-01-22T17:25:14.797Z,72.80
2023-01-22T17:27:43.707Z,72.70
2023-01-22T17:30:13.213Z,72.80
2023-01-22T17:32:42.126Z,73.00
2023-01-22T17:35:11.513Z,73.00
2023-01-22T17:37:40.511Z,73.30
2023-01-22T17:40:10.624Z,73.60
2023-01-22T17:42:39.569Z,73.90
2023-01-22T17:45:09.295Z,74.10
2023-01-22T17:47:38.247Z,73.90
2023-01-22T17:50:09.755Z,74.00
2023-01-22T17:52:38.699Z,74.00
2023-01-22T17:55:08.350Z,74.00
2023-01-22T17:57:37.411Z,74.30
2023-01-22T18:00:07.529Z,74.70
2023-01-22T18:02:36.481Z,74.70
2023-01-22T18:05:05.673Z,75.60
2023-01-22T18:07:36.381Z,74.80
2023-01-22T18:10:05.673Z,74.90
2023-01-22T18:12:34.624Z,74.90
2023-01-22T18:15:03.560Z,75.10
2023-01-22T18:17:32.519Z,75.00
2023-01-22T18:20:01.469Z,75.20
2023-01-22T18:22:31.439Z,75.40
2023-01-22T18:25:00.373Z,75.60
2023-01-22T18:27:29.776Z,76.00
2023-01-22T18:29:58.713Z,75.40
2023-01-22T18:32:27.635Z,75.60
2023-01-22T18:34:56.633Z,75.50
2023-01-22T18:37:25.605Z,75.50
2023-01-22T18:39:54.504Z,75.50
2023-01-22T18:42:23.478Z,76.10
2023-01-22T18:44:52.421Z,76.20
2023-01-22T18:47:21.722Z,76.60
2023-01-22T18:49:51.864Z,76.50
2023-01-22T18:52:20.911Z,76.30
2023-01-22T18:54:49.910Z,76.40
2023-01-22T18:57:18.877Z,76.40
2023-01-22T18:59:47.950Z,76.60
2023-01-22T19:02:18.679Z,76.70
2023-01-22T19:04:47.561Z,76.70
2023-01-22T19:07:16.436Z,77.00
2023-01-22T19:09:45.344Z,77.30
2023-01-22T19:12:16.420Z,77.20
2023-01-22T19:14:45.395Z,77.30
2023-01-22T19:17:14.312Z,77.20
2023-01-22T19:19:43.229Z,77.90
2023-01-22T19:22:12.111Z,77.60
2023-01-22T19:24:41.226Z,77.60
2023-01-22T19:27:10.628Z,77.60
2023-01-22T19:29:39.689Z,77.60
2023-01-22T19:32:12.446Z,77.70
2023-01-22T19:34:41.339Z,78.00
2023-01-22T19:37:10.388Z,77.70
2023-01-22T19:39:41.579Z,77.60
2023-01-22T19:42:10.761Z,77.70
2023-01-22T19:44:41.035Z,77.70
2023-01-22T19:47:10.447Z,77.60
2023-01-22T19:49:39.556Z,77.60
2023-01-22T19:52:09.551Z,77.60
2023-01-22T19:54:44.111Z,77.60
2023-01-22T19:57:13.145Z,77.80
2023-01-22T19:59:43.514Z,77.90
2023-01-22T20:02:15.770Z,78.00
2023-01-22T20:04:44.726Z,78.10
2023-01-22T20:07:14.053Z,77.90
2023-01-22T20:09:43.023Z,77.80
2023-01-22T20:12:12.368Z,77.70
2023-01-22T20:14:44.408Z,77.90
2023-01-22T20:17:17.754Z,78.30
2023-01-22T20:19:46.730Z,78.30
2023-01-22T20:22:15.674Z,78.40
2023-01-22T20:24:45.150Z,78.20
2023-01-22T20:27:14.230Z,78.60
2023-01-22T20:29:43.149Z,78.90
2023-01-22T20:32:12.133Z,78.60
2023-01-22T20:34:43.092Z,78.70
2023-01-22T20:37:12.105Z,78.60
2023-01-22T20:39:41.112Z,78.80
2023-01-22T20:42:10.350Z,78.60
2023-01-22T20:44:39.705Z,78.30
2023-01-22T20:47:08.645Z,78.30
2023-01-22T20:49:38.232Z,78.30
2023-01-22T20:52:07.562Z,78.60
2023-01-22T20:54:42.805Z,78.40
2023-01-22T20:57:19.861Z,78.40
2023-01-22T20:59:49.603Z,78.60
2023-01-22T21:02:18.682Z,79.20
2023-01-22T21:04:47.697Z,78.40
2023-01-22T21:07:16.691Z,78.30
2023-01-22T21:09:45.832Z,78.60
2023-01-22T21:12:15.085Z,78.70
2023-01-22T21:14:44.096Z,79.00
2023-01-22T21:17:13.494Z,78.90
2023-01-22T21:19:44.292Z,78.60
2023-01-22T21:22:13.269Z,78.40
2023-01-22T21:24:42.579Z,78.40
2023-01-22T21:27:11.608Z,78.40
2023-01-22T21:29:41.555Z,78.40
2023-01-22T21:32:10.523Z,78.50
2023-01-22T21:34:39.495Z,78.20
2023-01-22T21:37:08.422Z,78.30
2023-01-22T21:39:39.640Z,78.10
2023-01-22T21:42:26.571Z,77.90
2023-01-22T21:45:13.525Z,77.80
2023-01-22T21:47:42.463Z,77.80
2023-01-22T21:50:12.062Z,77.80
2023-01-22T21:52:44.051Z,77.50
2023-01-22T21:55:14.207Z,77.60
2023-01-22T21:57:44.005Z,77.60
2023-01-22T22:00:13.523Z,77.50
2023-01-22T22:02:42.406Z,77.40
2023-01-22T22:05:12.525Z,77.40
2023-01-22T22:07:41.519Z,77.40
2023-01-22T22:10:16.168Z,77.60
2023-01-22T22:12:45.214Z,77.50
2023-01-22T22:15:14.396Z,77.50
2023-01-22T22:17:43.518Z,77.50
2023-01-22T22:20:13.500Z,77.50
2023-01-22T22:22:42.494Z,77.60
2023-01-22T22:25:11.728Z,77.60
2023-01-22T22:27:40.584Z,77.60
2023-01-22T22:30:10.265Z,77.60
2023-01-22T22:32:39.126Z,77.60
2023-01-22T22:35:08.395Z,77.50
2023-01-22T22:37:38.041Z,77.50
2023-01-22T22:40:07.567Z,77.30
2023-01-22T22:42:36.505Z,77.30
2023-01-22T22:45:05.854Z,77.30
2023-01-22T22:47:37.781Z,77.30
2023-01-22T22:50:07.964Z,77.30
2023-01-22T22:52:37.408Z,77.40
2023-01-22T22:55:07.095Z,77.60
2023-01-22T22:57:36.023Z,77.80
2023-01-22T23:00:10.401Z,78.00
2023-01-22T23:02:39.413Z,78.20
2023-01-22T23:05:08.961Z,78.40
2023-01-22T23:07:37.897Z,78.50
2023-01-22T23:10:07.230Z,78.80
2023-01-22T23:12:36.168Z,78.90
2023-01-22T23:15:05.773Z,79.20
2023-01-22T23:17:34.642Z,79.00
2023-01-22T23:20:03.554Z,79.90
2023-01-22T23:22:32.455Z,80.40
2023-01-22T23:25:01.413Z,80.30
2023-01-22T23:27:31.372Z,81.20
2023-01-22T23:30:00.319Z,80.00
2023-01-22T23:32:31.664Z,80.60
2023-01-22T23:35:00.618Z,79.50
2023-01-22T23:37:29.610Z,79.70
2023-01-22T23:39:58.522Z,79.60
2023-01-22T23:42:27.403Z,79.60
2023-01-22T23:44:56.355Z,79.70
2023-01-22T23:47:28.144Z,80.20
2023-01-22T23:49:57.103Z,80.50
2023-01-22T23:52:26.113Z,80.20
2023-01-22T23:54:55.353Z,80.20
2023-01-22T23:57:24.344Z,79.80
2023-01-22T23:59:53.300Z,80.00
